Main page
METAR-TAF:

METAR-TAF

Airports :

London-Luton, England

Luton Airport

latitude: 51-52N, longitude: 000-22W, elevation: 160 m

Current weather observation

The report was made 29 minutes ago, at 04:20 UTC
Wind 3 kt from the South
Temperature 12°C
Humidity 100%
Pressure 1015 hPa
Visibility 10 km or more
Overcast at a height of 500 ft

METAR: EGGW 240420Z AUTO 19003KT 9999 OVC005 12/12 Q1015

Time: 05:49 (04:49 UTC)

Forecast

The report was made 1 hour and 0 minutes ago, at 03:49 UTC
Forecast valid from 24 at 03 UTC to 24 at 24 UTC
Wind 5 kt from the Southwest
Visibility 10 km or more
Few clouds at a height of 4500 ft
Temporary
from 24 at 03 UTC to 24 at 07 UTC
Broken clouds at a height of 700 ft
Probability 30% :
Temporary
from 24 at 03 UTC to 24 at 07 UTC
Visibility: 9000 m

TAF: EGGW 240349Z 2403/2424 23005KT 9999 FEW045 TEMPO 2403/2407 BKN007 PROB30 TEMPO 2403/2407 9000

Weather observations and forecasts of more than 4000 airports (METAR and TAF reports).

The available stations are represented by yellow and red dots on the map.

Hover mouse over dot to see the name of the station.

Then click to see weather observations and forecasts.

To change the map : click on the green buttons with a black cross to zoom in, on the green button with a dash to zoom out, or on the green arrows for adjacent maps.


METAR-TAF: